Terminal Aerodrome Forecast
Issued by NWS Sioux Falls, SD

Home | Current Version | Previous Version | Text Only | Print | Product List | Glossary On
Versions: 1 2 3 4 5 6 7 8 9 10 11 12 13 14 15 16 17 18 19 20 21 22 23 24 25 26 27 28 29 30
000
FTUS43 KFSD 141720
TAFSUX
TAF
KSUX 141720Z 1418/1518 VRB04KT P6SM SCT100
     FM150300 VRB04KT P6SM BKN030
      TEMPO 1504/1508 6SM -RA BKN030
     FM150800 02005KT P6SM OVC030
      TEMPO 1508/1512 5SM -RA BR BKN015
     FM151200 01008KT P6SM BKN030=

USA.gov is the U.S. government's official web portal to all federal, state and local government web resources and services.